createdAt,value
2018-10-16T00:01:55.824Z,76.13
2018-10-16T00:07:14.481Z,76.50
2018-10-16T00:12:33.091Z,76.37
2018-10-16T00:17:51.700Z,77.01
2018-10-16T00:23:11.250Z,77.13
2018-10-16T00:28:29.804Z,77.38
2018-10-16T00:33:48.430Z,77.24
2018-10-16T00:39:10.891Z,77.35
2018-10-16T00:44:30.075Z,77.63
2018-10-16T00:49:48.697Z,78.13
2018-10-16T00:55:08.328Z,77.99
2018-10-16T01:00:26.892Z,78.68
2018-10-16T01:05:46.455Z,78.70
2018-10-16T01:11:08.414Z,78.14
2018-10-16T01:16:27.019Z,78.60
2018-10-16T01:21:45.637Z,78.80
2018-10-16T01:27:04.227Z,78.86
2018-10-16T01:32:23.074Z,79.68
2018-10-16T01:37:42.134Z,79.20
2018-10-16T01:43:00.667Z,78.80
2018-10-16T01:48:19.196Z,79.31
2018-10-16T01:53:38.399Z,79.50
2018-10-16T01:58:57.023Z,79.28
2018-10-16T02:04:15.690Z,79.42
2018-10-16T02:09:34.220Z,79.43
2018-10-16T02:14:52.800Z,79.87
2018-10-16T02:20:11.417Z,78.97
2018-10-16T02:25:30.025Z,79.72
2018-10-16T02:30:48.828Z,79.10
2018-10-16T02:36:07.427Z,79.35
2018-10-16T02:41:25.970Z,79.06
2018-10-16T02:46:44.469Z,79.16
2018-10-16T02:52:03.038Z,78.80
2018-10-16T02:57:21.743Z,78.70
2018-10-16T03:02:40.397Z,78.87
2018-10-16T03:07:58.970Z,78.97
2018-10-16T03:13:17.634Z,79.28
2018-10-16T03:18:36.222Z,78.47
2018-10-16T03:23:54.810Z,77.94
2018-10-16T03:29:13.420Z,79.02
2018-10-16T03:34:32.030Z,79.18
2018-10-16T03:39:50.768Z,79.40
2018-10-16T03:45:11.340Z,79.01
2018-10-16T03:50:29.906Z,79.52
2018-10-16T03:55:48.419Z,79.95
2018-10-16T04:01:07.680Z,80.13
2018-10-16T04:06:26.274Z,79.70
2018-10-16T04:11:44.870Z,79.90
2018-10-16T04:17:03.482Z,79.56
2018-10-16T04:22:22.089Z,79.47
2018-10-16T04:27:40.753Z,80.16
2018-10-16T04:32:59.325Z,79.74
2018-10-16T04:38:17.924Z,79.51
2018-10-16T04:43:37.155Z,79.84
2018-10-16T04:48:56.365Z,79.65
2018-10-16T04:54:14.867Z,79.61
2018-10-16T04:59:34.026Z,79.54
2018-10-16T05:04:52.897Z,79.72
2018-10-16T05:10:11.464Z,79.73
2018-10-16T05:15:31.286Z,79.37
2018-10-16T05:20:49.981Z,79.40
2018-10-16T05:26:08.661Z,79.55
2018-10-16T05:31:27.685Z,79.44
2018-10-16T05:36:46.062Z,80.52
2018-10-16T05:42:04.992Z,80.10
2018-10-16T05:47:23.716Z,80.62
2018-10-16T05:52:42.270Z,80.45
2018-10-16T05:58:01.442Z,80.63
2018-10-16T06:03:20.100Z,80.33
2018-10-16T06:08:38.811Z,80.30
2018-10-16T06:13:57.349Z,80.20
2018-10-16T06:19:15.986Z,80.45
2018-10-16T06:24:35.101Z,80.47
2018-10-16T06:29:54.410Z,80.53
2018-10-16T06:35:14.503Z,80.37
2018-10-16T06:40:33.188Z,80.29
2018-10-16T06:45:51.780Z,80.71
2018-10-16T06:51:10.360Z,80.05
2018-10-16T06:56:28.898Z,79.99
2018-10-16T07:01:47.451Z,79.63
2018-10-16T07:07:07.160Z,78.91
2018-10-16T07:12:25.601Z,79.38
2018-10-16T07:17:44.327Z,78.60
2018-10-16T07:23:02.946Z,76.82
2018-10-16T07:28:21.577Z,75.58
2018-10-16T07:33:40.994Z,74.34
2018-10-16T07:38:59.769Z,74.25
2018-10-16T07:44:18.163Z,76.46
2018-10-16T07:49:37.124Z,75.29
2018-10-16T07:54:55.695Z,74.37
2018-10-16T08:00:14.300Z,73.98
2018-10-16T08:05:33.024Z,72.68
2018-10-16T08:10:52.839Z,71.56
2018-10-16T08:16:11.423Z,71.96
2018-10-16T08:21:30.072Z,71.54
2018-10-16T08:26:48.853Z,69.76
2018-10-16T08:32:07.465Z,70.67
2018-10-16T08:38:34.994Z,70.04
2018-10-16T08:44:37.476Z,68.98
2018-10-16T08:50:07.378Z,71.38
2018-10-16T08:55:25.974Z,68.55
2018-10-16T09:00:44.650Z,68.07
2018-10-16T09:06:03.239Z,69.70
2018-10-16T09:11:22.781Z,67.41
2018-10-16T09:16:42.992Z,65.04
2018-10-16T09:22:01.626Z,66.55
2018-10-16T09:27:20.260Z,68.52
2018-10-16T09:32:39.200Z,65.87
2018-10-16T09:37:57.892Z,64.54
2018-10-16T09:43:16.404Z,64.33
2018-10-16T09:48:35.883Z,65.22
2018-10-16T09:53:54.640Z,64.04
2018-10-16T09:59:13.718Z,63.41
2018-10-16T10:04:32.927Z,63.77
2018-10-16T10:09:51.612Z,57.49
2018-10-16T10:15:10.260Z,56.62
2018-10-16T10:20:28.852Z,56.73
2018-10-16T10:25:47.412Z,53.69
2018-10-16T10:31:06.367Z,53.37
2018-10-16T10:36:24.995Z,52.64
2018-10-16T10:41:43.715Z,50.51
2018-10-16T10:47:02.443Z,52.21
2018-10-16T10:52:21.019Z,50.11
2018-10-16T10:57:39.989Z,50.92
2018-10-16T11:02:58.659Z,49.74
2018-10-16T11:08:18.368Z,51.21
2018-10-16T11:13:37.369Z,50.00
2018-10-16T11:18:57.442Z,50.53
2018-10-16T11:24:15.988Z,50.00
2018-10-16T11:29:34.547Z,48.64
2018-10-16T11:34:53.152Z,48.30
2018-10-16T11:40:12.706Z,47.83
2018-10-16T11:45:31.258Z,46.58
2018-10-16T11:50:51.060Z,46.91
2018-10-16T11:56:11.855Z,46.91
2018-10-16T12:01:31.090Z,44.02
2018-10-16T12:06:49.655Z,42.21
2018-10-16T12:12:08.318Z,42.55
2018-10-16T12:19:38.026Z,42.97
2018-10-16T12:24:56.549Z,45.13
2018-10-16T12:30:15.071Z,44.09
2018-10-16T12:35:33.642Z,44.19
2018-10-16T12:40:52.171Z,44.57
2018-10-16T12:46:11.090Z,44.14
2018-10-16T12:51:29.764Z,43.75
2018-10-16T12:56:48.771Z,42.29
2018-10-16T13:02:07.523Z,43.62
2018-10-16T13:07:32.858Z,43.09
2018-10-16T13:12:51.397Z,42.92
2018-10-16T13:18:09.991Z,41.94
2018-10-16T13:23:28.630Z,41.57
2018-10-16T13:28:47.238Z,43.24
2018-10-16T13:34:06.439Z,43.04
2018-10-16T13:39:24.931Z,43.49
2018-10-16T13:44:43.432Z,41.96
2018-10-16T13:50:02.234Z,41.77
2018-10-16T13:55:20.845Z,42.60
2018-10-16T14:00:39.411Z,42.41
2018-10-16T14:05:57.966Z,43.12
2018-10-16T14:11:16.746Z,42.70
2018-10-16T14:16:36.424Z,42.72
2018-10-16T14:21:55.108Z,42.92
2018-10-16T14:27:13.669Z,41.97
2018-10-16T14:32:32.213Z,43.89
2018-10-16T14:37:51.513Z,43.35
2018-10-16T14:43:10.030Z,44.47
2018-10-16T14:48:28.645Z,45.17
2018-10-16T14:53:47.213Z,45.64
2018-10-16T14:59:05.895Z,46.41
2018-10-16T15:04:24.459Z,47.49
2018-10-16T15:09:43.047Z,48.29
2018-10-16T15:15:02.710Z,49.15
2018-10-16T15:20:22.150Z,49.98
2018-10-16T15:25:40.786Z,51.46
2018-10-16T15:31:00.562Z,52.00
2018-10-16T15:36:19.351Z,51.17
2018-10-16T15:41:38.403Z,53.28
2018-10-16T15:46:58.630Z,51.66
2018-10-16T15:52:17.291Z,52.11
2018-10-16T15:57:35.964Z,54.37
2018-10-16T16:02:55.074Z,54.98
2018-10-16T16:08:15.211Z,54.94
2018-10-16T16:13:33.782Z,55.31
2018-10-16T16:18:52.385Z,56.98
2018-10-16T16:24:11.178Z,57.71
2018-10-16T16:29:30.473Z,57.18
2018-10-16T16:34:49.044Z,57.58
2018-10-16T16:40:09.600Z,58.10
2018-10-16T16:45:28.104Z,57.67
2018-10-16T16:50:47.142Z,59.21
2018-10-16T16:56:06.313Z,58.93
2018-10-16T17:01:24.811Z,59.44
2018-10-16T17:06:43.599Z,59.23
2018-10-16T17:12:02.099Z,59.37
2018-10-16T17:17:21.460Z,59.52
2018-10-16T17:22:40.201Z,59.79
2018-10-16T17:27:58.910Z,60.18
2018-10-16T17:33:17.656Z,61.19
2018-10-16T17:38:36.408Z,60.98
2018-10-16T17:43:55.687Z,62.29
2018-10-16T17:49:14.357Z,63.54
2018-10-16T17:54:32.938Z,63.75
2018-10-16T17:59:51.684Z,63.59
2018-10-16T18:05:10.450Z,63.87
2018-10-16T18:10:29.731Z,64.84
2018-10-16T18:15:49.011Z,65.21
2018-10-16T18:21:07.858Z,65.18
2018-10-16T18:26:27.171Z,65.47
2018-10-16T18:31:45.797Z,65.59
2018-10-16T18:37:04.628Z,66.73
2018-10-16T18:42:23.351Z,67.29
2018-10-16T18:47:42.254Z,67.75
2018-10-16T18:53:00.943Z,68.33
2018-10-16T18:58:19.473Z,68.25
2018-10-16T19:03:38.024Z,68.75
2018-10-16T19:08:56.594Z,69.00
2018-10-16T19:14:15.092Z,69.32
2018-10-16T19:19:33.603Z,70.26
2018-10-16T19:24:52.370Z,70.62
2018-10-16T19:30:12.177Z,71.35
2018-10-16T19:35:31.619Z,71.78
2018-10-16T19:40:50.149Z,71.89
2018-10-16T19:46:08.693Z,71.95
2018-10-16T19:51:27.236Z,73.03
2018-10-16T19:56:45.795Z,73.85
2018-10-16T20:02:04.919Z,74.37
2018-10-16T20:07:23.508Z,74.24
2018-10-16T20:12:42.619Z,74.31
2018-10-16T20:18:02.763Z,74.36
2018-10-16T20:23:23.211Z,74.63
2018-10-16T20:28:41.779Z,74.63
2018-10-16T20:34:00.477Z,74.31
2018-10-16T20:39:19.061Z,74.12
2018-10-16T20:44:37.625Z,73.65
2018-10-16T20:49:56.294Z,74.44
2018-10-16T20:55:14.852Z,74.71
2018-10-16T21:00:33.608Z,74.15
2018-10-16T21:05:52.305Z,74.85
2018-10-16T21:11:10.768Z,74.54
2018-10-16T21:16:29.306Z,74.50
2018-10-16T21:21:47.855Z,74.26
2018-10-16T21:27:13.603Z,74.38
2018-10-16T21:32:32.090Z,74.30
2018-10-16T21:37:50.648Z,73.50
2018-10-16T21:43:09.244Z,74.10
2018-10-16T21:48:27.998Z,73.75
2018-10-16T21:53:46.524Z,74.23
2018-10-16T21:59:07.132Z,74.64
2018-10-16T22:04:25.620Z,75.35
2018-10-16T22:09:44.223Z,75.81
2018-10-16T22:15:02.809Z,75.63
2018-10-16T22:20:21.322Z,77.12
2018-10-16T22:25:39.924Z,76.93
2018-10-16T22:30:58.443Z,76.10
2018-10-16T22:36:16.962Z,76.05
2018-10-16T22:41:35.470Z,76.35
2018-10-16T22:46:54.002Z,77.58
2018-10-16T22:52:12.526Z,78.33
2018-10-16T22:57:31.054Z,78.01
2018-10-16T23:02:50.155Z,77.88
2018-10-16T23:08:08.745Z,79.39
2018-10-16T23:13:27.312Z,78.88
2018-10-16T23:18:45.871Z,78.55
2018-10-16T23:24:04.423Z,78.49
2018-10-16T23:29:22.981Z,79.53
2018-10-16T23:34:41.531Z,79.87
2018-10-16T23:40:00.114Z,79.78
2018-10-16T23:45:18.615Z,80.69
2018-10-16T23:50:37.240Z,81.41
2018-10-16T23:55:55.791Z,80.98
